Time;durP1;ratioP1;P1;durP2;ratioP2;P2;SDS_P1;SDS_P2;PMS_P1;PMS_P2;Temp;Humidity;BMP_temperature;BMP_pressure;BME280_temperature;BME280_humidity;BME280_pressure;Samples;Min_cycle;Max_cycle;Signal;HPM_P1;HPM_P2
2022/08/23 00:01:23;;;;;;;1.92;1.48;;;;;;;14.87;100.00;99492.38;4993917;28;20046;-84
2022/08/23 00:03:50;;;;;;;1.80;1.70;;;;;;;14.86;100.00;99493.59;4994600;28;20049;-83
2022/08/23 00:06:16;;;;;;;2.42;1.25;;;;;;;14.85;100.00;99485.69;4994032;28;20042;-84
2022/08/23 00:08:42;;;;;;;1.95;1.50;;;;;;;14.90;100.00;99480.22;4992834;28;20068;-84
2022/08/23 00:11:29;;;;;;;2.22;1.60;;;;;;;14.87;100.00;99483.97;5012033;28;20040;-83
2022/08/23 00:13:55;;;;;;;2.40;1.40;;;;;;;14.86;100.00;99476.06;5011216;28;20125;-83
2022/08/23 00:16:21;;;;;;;2.00;1.55;;;;;;;14.87;100.00;99477.63;4975253;28;20487;-84
2022/08/23 00:18:47;;;;;;;2.75;1.70;;;;;;;14.84;100.00;99467.41;4992507;28;20034;-96
2022/08/23 00:21:13;;;;;;;2.03;1.67;;;;;;;14.86;100.00;99476.84;5006096;28;20073;-95
2022/08/23 00:23:38;;;;;;;2.42;1.52;;;;;;;14.91;100.00;99476.19;4996437;28;20045;-95
2022/08/23 00:26:04;;;;;;;1.95;1.65;;;;;;;14.91;100.00;99472.63;4997229;28;20042;-94
2022/08/23 00:28:30;;;;;;;2.05;1.60;;;;;;;14.88;100.00;99474.34;5011146;28;20041;-95
2022/08/23 00:30:56;;;;;;;3.47;1.90;;;;;;;14.85;100.00;99469.72;5012777;28;20388;-94
2022/08/23 00:33:23;;;;;;;1.85;1.60;;;;;;;14.88;100.00;99468.75;4991360;28;20045;-96
2022/08/23 00:35:48;;;;;;;2.05;1.60;;;;;;;14.88;100.00;99474.34;5013084;28;20049;-95
2022/08/23 00:38:14;;;;;;;1.90;1.70;;;;;;;14.86;100.00;99465.69;5009782;28;20046;-83
2022/08/23 00:40:46;;;;;;;2.08;1.60;;;;;;;14.88;100.00;99470.78;4974380;28;20061;-83
2022/08/23 00:48:50;;;;;;;2.08;1.73;;;;;;;14.89;100.00;99467.50;4989973;28;20046;-83
2022/08/23 00:51:21;;;;;;;2.05;1.83;;;;;;;14.87;100.00;99470.03;5011246;28;20069;-84
2022/08/23 00:53:49;;;;;;;2.63;1.90;;;;;;;14.86;100.00;99465.69;4993194;28;20042;-84
2022/08/23 00:56:17;;;;;;;1.90;1.67;;;;;;;14.92;100.00;99474.91;4992235;28;20083;-91
2022/08/23 00:58:44;;;;;;;4.40;2.20;;;;;;;14.91;100.00;99478.97;5009107;28;20042;-91
2022/08/23 01:03:55;;;;;;;3.05;2.00;;;;;;;14.88;100.00;99474.34;4880812;23;20120;-80
2022/08/23 01:06:31;;;;;;;1.92;1.73;;;;;;;14.88;100.00;99479.91;4992142;28;20052;-79
2022/08/23 01:09:04;;;;;;;2.42;2.10;;;;;;;14.93;100.00;99475.69;5020303;28;20056;-79
2022/08/23 01:11:33;;;;;;;2.05;1.85;;;;;;;14.89;100.00;99475.88;4994123;28;20493;-79
2022/08/23 01:14:02;;;;;;;4.57;2.20;;;;;;;14.90;100.00;99476.66;5000898;28;20045;-79
2022/08/23 01:16:44;;;;;;;2.10;1.90;;;;;;;14.92;100.00;99486.09;5019301;28;20493;-79
2022/08/23 01:19:28;;;;;;;2.90;1.90;;;;;;;14.91;100.00;99478.22;5010544;28;20183;-79
2022/08/23 02:41:21;;;;;;;3.45;2.25;;;;;;;14.82;100.00;99509.78;5011578;28;20776;-83
2022/08/23 02:43:51;;;;;;;3.17;2.13;;;;;;;14.83;100.00;99508.53;4995745;28;20117;-83
2022/08/23 02:46:16;;;;;;;2.47;2.15;;;;;;;14.87;100.00;99514.69;4979745;28;20112;-84
2022/08/23 02:48:42;;;;;;;2.25;2.05;;;;;;;14.85;100.00;99519.97;5012346;28;20038;-83
2022/08/23 02:51:09;;;;;;;2.92;2.25;;;;;;;14.84;100.00;99512.09;4995410;28;20100;-84
2022/08/23 02:53:35;;;;;;;2.30;1.92;;;;;;;14.88;100.00;99521.06;4996066;28;20029;-84
2022/08/23 02:56:05;;;;;;;4.53;1.90;;;;;;;14.85;100.00;99516.41;4980079;28;20045;-91
2022/08/23 02:58:31;;;;;;;2.20;2.00;;;;;;;14.84;100.00;99514.88;4995722;28;20038;-90
2022/08/23 03:00:57;;;;;;;2.10;1.90;;;;;;;14.84;100.00;99512.84;4995153;28;20073;-91
2022/08/23 03:03:23;;;;;;;2.33;1.90;;;;;;;14.87;100.00;99525.88;4986528;28;20096;-90
2022/08/23 03:05:48;;;;;;;2.47;1.60;;;;;;;14.88;100.00;99524.59;5012169;28;20055;-91
2022/08/23 03:08:15;;;;;;;2.40;1.67;;;;;;;14.89;100.00;99531.72;4985399;28;20045;-91
2022/08/23 03:10:49;;;;;;;3.33;1.75;;;;;;;14.87;100.00;99534.25;4989333;28;20034;-91
2022/08/23 03:13:15;;;;;;;3.03;1.75;;;;;;;14.88;100.00;99544.16;4975411;28;20119;-90
2022/08/23 03:15:41;;;;;;;2.10;1.80;;;;;;;14.91;100.00;99546.00;5010748;28;20041;-84
2022/08/23 03:18:07;;;;;;;3.55;1.70;;;;;;;14.91;100.00;99542.44;4994195;28;20038;-83
2022/08/23 03:20:33;;;;;;;2.75;1.63;;;;;;;14.93;100.00;99546.28;4991712;28;20060;-84
2022/08/23 03:22:59;;;;;;;2.15;1.60;;;;;;;14.92;100.00;99553.09;4977102;28;20038;-84
2022/08/23 03:25:25;;;;;;;2.10;1.70;;;;;;;14.93;100.00;99551.88;4994774;28;20049;-84
2022/08/23 03:28:06;;;;;;;2.63;1.60;;;;;;;14.92;100.00;99555.91;4990940;28;20553;-83
2022/08/23 03:30:34;;;;;;;3.88;2.10;;;;;;;14.92;100.00;99555.91;4993490;28;20042;-84
2022/08/23 03:33:00;;;;;;;2.15;1.70;;;;;;;14.93;100.00;99554.66;4994886;28;20052;-91
2022/08/23 03:35:27;;;;;;;3.05;1.90;;;;;;;14.95;100.00;99568.16;4978582;28;20053;-84
2022/08/23 03:37:53;;;;;;;1.63;1.52;;;;;;;14.94;100.00;99555.44;4975466;28;20034;-83
2022/08/23 03:40:21;;;;;;;2.03;1.50;;;;;;;14.91;100.00;99554.38;5012659;28;20096;-84
2022/08/23 03:42:47;;;;;;;3.65;1.50;;;;;;;14.93;100.00;99565.81;5011477;28;20537;-83
2022/08/23 03:45:13;;;;;;;1.70;1.60;;;;;;;14.92;100.00;99553.09;4995667;28;20498;-84
2022/08/23 03:47:39;;;;;;;2.10;1.63;;;;;;;14.91;100.00;99562.75;4991763;28;20084;-84
2022/08/23 03:50:04;;;;;;;2.03;1.65;;;;;;;14.93;100.00;99570.63;4977016;28;20030;-84
2022/08/23 03:52:31;;;;;;;1.50;1.40;;;;;;;14.92;100.00;99571.91;4992458;28;20068;-83
2022/08/23 03:54:57;;;;;;;2.50;1.70;;;;;;;14.93;100.00;99579.00;4973003;28;20054;-90
2022/08/23 03:57:24;;;;;;;2.17;1.73;;;;;;;14.91;100.00;99573.94;4978365;28;20038;-89
2022/08/23 03:59:50;;;;;;;1.85;1.50;;;;;;;14.94;100.00;99584.13;4993925;28;20483;-90
2022/08/23 04:02:15;;;;;;;1.70;1.60;;;;;;;14.93;100.00;99579.78;4993913;28;20049;-91
2022/08/23 04:04:41;;;;;;;2.65;1.90;;;;;;;14.94;100.00;99584.13;5010699;28;20221;-89
2022/08/23 04:07:27;;;;;;;1.92;1.73;;;;;;;14.93;100.00;99592.97;4986498;28;20487;-89
2022/08/23 04:09:55;;;;;;;1.75;1.65;;;;;;;14.94;100.00;99595.31;4993857;28;20443;-90
2022/08/23 04:12:22;;;;;;;2.78;1.65;;;;;;;14.92;100.00;99595.00;4978659;28;20459;-84
2022/08/23 04:14:48;;;;;;;1.90;1.70;;;;;;;14.94;100.00;99603.69;4986237;28;20035;-83
2022/08/23 04:17:16;;;;;;;1.90;1.65;;;;;;;14.96;100.00;99608.03;4979876;28;20046;-83
2022/08/23 04:19:42;;;;;;;2.78;1.92;;;;;;;14.99;100.00;99604.28;4993261;28;20117;-83
2022/08/23 04:22:12;;;;;;;1.58;1.48;;;;;;;14.99;100.00;99607.06;4977213;28;20048;-83
2022/08/23 04:24:39;;;;;;;1.63;1.40;;;;;;;14.97;100.00;99603.97;4976508;28;20030;-83
2022/08/23 04:27:05;;;;;;;1.60;1.50;;;;;;;15.00;100.00;99608.63;4990892;28;20132;-83
2022/08/23 04:29:31;;;;;;;2.60;1.60;;;;;;;15.05;100.00;99622.69;5008861;28;20129;-84
2022/08/23 04:31:58;;;;;;;1.75;1.25;;;;;;;15.05;100.00;99616.31;4994294;28;20115;-90
2022/08/23 04:34:26;;;;;;;1.88;1.30;;;;;;;15.05;100.00;99621.91;4971634;28;20042;-91
2022/08/23 04:36:53;;;;;;;2.35;1.30;;;;;;;15.06;100.00;99621.44;4984727;28;20125;-90
2022/08/23 04:39:19;;;;;;;3.63;1.50;;;;;;;15.06;100.00;99620.66;4978027;28;20042;-91
2022/08/23 04:44:28;;;;;;;2.42;1.63;;;;;;;15.10;100.00;99622.03;5009406;28;20049;-91
2022/08/23 04:46:58;;;;;;;1.60;1.42;;;;;;;15.06;100.00;99618.63;5007670;28;20072;-90
2022/08/23 04:49:24;;;;;;;1.98;1.40;;;;;;;15.12;100.00;99632.72;4994947;28;20495;-84
2022/08/23 04:51:49;;;;;;;3.63;1.58;;;;;;;15.11;100.00;99631.19;5011642;28;20054;-91
2022/08/23 04:54:15;;;;;;;4.25;2.10;;;;;;;15.06;100.00;99618.63;4959470;28;20050;-89
2022/08/23 04:56:59;;;;;;;3.20;2.03;;;;;;;15.11;100.00;99625.59;5007580;28;20517;-91
2022/08/23 04:59:25;;;;;;;2.45;1.80;;;;;;;15.14;100.00;99624.63;4994431;28;20049;-90
2022/08/23 05:01:50;;;;;;;3.25;1.92;;;;;;;15.16;100.00;99639.69;5010465;28;20045;-91
2022/08/23 05:04:16;;;;;;;2.35;1.90;;;;;;;15.18;100.00;99625.22;4996744;28;20402;-89
2022/08/23 05:06:42;;;;;;;1.92;1.58;;;;;;;15.23;100.00;99627.34;4989080;28;20089;-90
2022/08/23 05:09:08;;;;;;;2.50;1.73;;;;;;;15.24;100.00;99631.69;5009600;28;20049;-91
2022/08/23 05:11:35;;;;;;;1.88;1.60;;;;;;;15.28;100.00;99635.06;4975284;28;20128;-83
2022/08/23 05:14:01;;;;;;;1.95;1.52;;;;;;;15.33;100.00;99637.97;4993304;28;20519;-82
2022/08/23 05:16:26;;;;;;;2.40;1.70;;;;;;;15.35;100.00;99646.66;4990801;28;20617;-82
2022/08/23 05:18:59;;;;;;;2.50;1.60;;;;;;;15.36;100.00;99641.84;4991311;28;20129;-82
2022/08/23 05:21:25;;;;;;;2.75;1.60;;;;;;;15.43;100.00;99627.47;4989519;28;20061;-83
2022/08/23 05:23:51;;;;;;;2.33;1.50;;;;;;;15.42;100.00;99634.31;4991061;28;20034;-82
2022/08/23 05:26:19;;;;;;;2.97;1.90;;;;;;;15.50;100.00;99631.94;4974369;28;20042;-83
2022/08/23 05:28:46;;;;;;;1.77;1.50;;;;;;;15.56;100.00;99632.84;4976767;28;20653;-91
2022/08/23 05:31:23;;;;;;;2.15;1.60;;;;;;;15.62;100.00;99631.66;4977210;28;20042;-91
2022/08/23 05:33:56;;;;;;;2.65;1.42;;;;;;;15.75;100.00;99629.38;4962520;28;20050;-91
2022/08/23 05:36:51;;;;;;;2.72;1.50;;;;;;;15.80;100.00;99633.50;4986339;28;20038;-91
2022/08/23 05:39:18;;;;;;;2.22;1.30;;;;;;;15.84;100.00;99643.25;4992257;28;20136;-91
2022/08/23 05:41:45;;;;;;;4.13;1.40;;;;;;;15.90;100.00;99645.34;4977651;28;20042;-92
2022/08/23 05:44:11;;;;;;;1.23;0.98;;;;;;;15.96;100.00;99649.03;4992603;28;20053;-92
2022/08/23 05:46:39;;;;;;;1.63;1.20;;;;;;;15.89;100.00;99650.22;4973567;28;20050;-91
2022/08/23 05:49:20;;;;;;;1.40;1.30;;;;;;;15.89;100.00;99652.22;4972338;28;20077;-82
2022/08/23 05:51:46;;;;;;;0.95;0.90;;;;;;;15.84;100.00;99654.44;4985862;28;20077;-82
2022/08/23 05:54:12;;;;;;;2.28;1.20;;;;;;;15.86;100.00;99651.16;4990858;28;20172;-82
2022/08/23 05:56:41;;;;;;;1.27;1.17;;;;;;;15.90;100.00;99662.91;4990498;28;20073;-82
2022/08/23 05:59:11;;;;;;;1.80;1.25;;;;;;;15.88;100.00;99659.06;4987920;28;20046;-82
2022/08/23 06:01:38;;;;;;;1.30;1.20;;;;;;;15.89;100.00;99652.22;4976222;28;20046;-82
2022/08/23 06:04:11;;;;;;;1.75;1.20;;;;;;;15.86;100.00;99651.91;4973772;28;20042;-82
2022/08/23 06:06:39;;;;;;;1.00;0.90;;;;;;;15.90;100.00;99650.94;4982300;28;20391;-82
2022/08/23 06:09:07;;;;;;;1.98;1.30;;;;;;;15.88;100.00;99648.66;4991376;28;20119;-90
2022/08/23 06:11:34;;;;;;;1.27;1.00;;;;;;;15.83;100.00;99647.31;4990035;28;20076;-92
2022/08/23 06:14:01;;;;;;;0.93;0.93;;;;;;;15.91;100.00;99652.50;4974884;28;20088;-92
2022/08/23 06:16:32;;;;;;;1.50;0.90;;;;;;;15.93;100.00;99644.41;4976410;28;20045;-90
2022/08/23 06:19:02;;;;;;;0.93;0.80;;;;;;;15.95;100.00;99653.06;4977787;28;20566;-91
2022/08/23 06:21:47;;;;;;;1.10;1.00;;;;;;;15.96;100.00;99663.03;4991457;28;20101;-90
2022/08/23 06:24:16;;;;;;;1.30;1.00;;;;;;;15.98;100.00;99664.06;4991939;28;20081;-88
2022/08/23 06:27:01;;;;;;;0.85;0.80;;;;;;;15.99;100.00;99656.44;4978813;28;20045;-82
2022/08/23 06:29:26;;;;;;;0.68;0.68;;;;;;;15.97;100.00;99656.94;4972839;28;20500;-81
2022/08/23 06:32:12;;;;;;;1.02;0.93;;;;;;;16.06;100.00;99653.25;5002474;28;20072;-81
2022/08/23 06:34:47;;;;;;;1.00;0.90;;;;;;;16.09;100.00;99666.31;4989012;28;20501;-82
2022/08/23 06:37:33;;;;;;;0.70;0.70;;;;;;;16.18;100.00;99666.19;4993318;28;20054;-81
2022/08/23 06:40:05;;;;;;;0.80;0.80;;;;;;;16.16;100.00;99660.31;4997318;28;20047;-81
2022/08/23 06:43:00;;;;;;;0.73;0.73;;;;;;;16.08;100.00;99665.53;4975264;28;20125;-81
2022/08/23 06:45:38;;;;;;;2.55;1.27;;;;;;;16.12;100.00;99668.13;4969600;28;20133;-89
2022/08/23 06:48:03;;;;;;;1.08;0.90;;;;;;;16.17;100.00;99664.66;4970865;28;21446;-89
2022/08/23 06:50:30;;;;;;;1.75;0.90;;;;;;;16.28;100.00;99664.81;4971373;28;20038;-89
2022/08/23 06:53:14;;;;;;;0.80;0.80;;;;;;;16.34;100.00;99657.28;4988745;28;20140;-90
2022/08/23 06:55:51;;;;;;;1.60;0.90;;;;;;;16.45;100.00;99673.47;4970457;28;20142;-89
2022/08/23 06:58:22;;;;;;;0.80;0.80;;;;;;;16.57;100.00;99676.00;4975313;28;20536;-89
2022/08/23 07:01:36;;;;;;;0.85;0.80;;;;;;;16.65;100.00;99676.34;4991678;28;20081;-89
2022/08/23 07:04:12;;;;;;;2.08;1.00;;;;;;;16.64;100.00;99686.00;4960808;28;20292;-81
2022/08/23 07:06:57;;;;;;;1.00;0.90;;;;;;;16.67;100.00;99682.22;4989781;28;20049;-81
2022/08/23 07:09:23;;;;;;;1.17;0.73;;;;;;;16.69;100.00;99688.13;4958130;28;20057;-81
2022/08/23 07:11:50;;;;;;;1.23;0.73;;;;;;;16.69;100.00;99704.94;4975711;28;20062;-81
2022/08/23 07:14:18;;;;;;;2.38;0.90;;;;;;;16.74;100.00;99707.78;4975040;28;20038;-81
2022/08/23 07:16:55;;;;;;;1.50;0.90;;;;;;;16.74;100.00;99707.78;4975215;28;20054;-81
2022/08/23 07:19:23;;;;;;;1.60;0.88;;;;;;;16.81;100.00;99709.44;4975082;28;20117;-81
2022/08/23 07:21:48;;;;;;;1.27;0.90;;;;;;;16.82;100.00;99707.41;4959399;28;20049;-81
2022/08/23 07:24:15;;;;;;;0.60;0.60;;;;;;;16.77;100.00;99708.88;4958947;28;20038;-91
2022/08/23 07:26:42;;;;;;;1.02;0.80;;;;;;;16.64;100.00;99706.38;4959223;28;20042;-90
2022/08/23 07:29:10;;;;;;;1.10;0.90;;;;;;;16.68;100.00;99708.97;4974942;28;20185;-90
2022/08/23 07:31:45;;;;;;;1.55;0.70;;;;;;;16.70;100.00;99706.47;4975335;28;20061;-90
2022/08/23 07:34:11;;;;;;;0.82;0.80;;;;;;;16.73;100.00;99699.91;4975408;28;20124;-90
2022/08/23 07:36:41;;;;;;;1.92;0.68;;;;;;;16.74;100.00;99707.78;4975521;28;20169;-89
2022/08/23 07:39:07;;;;;;;2.00;1.05;;;;;;;16.79;100.00;99712.72;4994295;28;20042;-90
2022/08/23 07:41:33;;;;;;;2.63;0.80;;;;;;;16.90;100.00;99719.75;4994585;28;20050;-89
2022/08/23 07:44:01;;;;;;;0.90;0.80;;;;;;;16.94;100.00;99728.72;4994976;28;20049;-81
2022/08/23 07:46:29;;;;;;;2.22;1.00;;;;;;;16.93;100.00;99725.16;4978189;28;20053;-81
2022/08/23 07:48:57;;;;;;;1.02;0.93;;;;;;;16.97;100.00;99736.13;4978824;28;20037;-81
2022/08/23 07:51:26;;;;;;;1.38;1.02;;;;;;;16.90;100.00;99728.16;4977925;28;20514;-81
2022/08/23 07:53:51;;;;;;;1.20;0.80;;;;;;;16.91;100.00;99743.69;4994533;28;20112;-80
2022/08/23 07:56:19;;;;;;;1.20;1.10;;;;;;;17.04;100.00;99749.75;4994079;28;20403;-81
2022/08/23 07:59:14;;;;;;;2.42;1.00;;;;;;;17.08;100.00;99742.66;4996575;28;20041;-81
2022/08/23 08:01:52;;;;;;;1.35;1.00;;;;;;;17.10;100.00;99761.81;4996129;28;20057;-91
2022/08/23 08:04:18;;;;;;;1.13;1.02;;;;;;;17.15;100.00;99772.31;4994096;28;20143;-90
2022/08/23 08:06:48;;;;;;;2.92;1.08;;;;;;;17.18;100.00;99771.34;4994098;28;20048;-91
2022/08/23 08:09:15;;;;;;;1.15;0.85;;;;;;;17.18;100.00;99774.16;4993056;28;20128;-91
2022/08/23 08:11:43;;;;;;;2.50;0.90;;;;;;;17.12;100.00;99776.88;4994024;28;20123;-90
2022/08/23 08:14:11;;;;;;;1.15;0.90;;;;;;;17.11;100.00;99769.72;4994129;28;20045;-90
2022/08/23 08:16:47;;;;;;;1.60;1.05;;;;;;;17.14;100.00;99768.75;4987610;28;20054;-89
2022/08/23 08:19:19;;;;;;;0.98;0.90;;;;;;;17.21;100.00;99770.38;4988882;28;20148;-90
2022/08/23 08:22:03;;;;;;;2.13;1.20;;;;;;;17.29;100.00;99777.09;4994437;28;20064;-81
2022/08/23 08:24:46;;;;;;;1.33;1.10;;;;;;;17.28;100.00;99778.34;5001055;28;20119;-82
2022/08/23 08:27:12;;;;;;;3.22;1.10;;;;;;;17.26;100.00;99780.88;4995090;28;20527;-81
2022/08/23 08:29:38;;;;;;;2.05;1.02;;;;;;;17.29;100.00;99784.72;4992443;28;20045;-81
2022/08/23 08:32:04;;;;;;;1.30;0.85;;;;;;;17.24;100.00;99783.38;4997328;28;20068;-81
2022/08/23 08:34:30;;;;;;;1.20;1.10;;;;;;;17.29;100.00;99791.13;4987100;28;20046;-81
2022/08/23 08:36:57;;;;;;;2.80;1.10;;;;;;;17.28;100.00;99783.97;4995051;28;20088;-81
2022/08/23 08:39:28;;;;;;;2.97;1.48;;;;;;;17.35;100.00;99788.41;4987187;28;20096;-82
2022/08/23 08:42:23;;;;;;;1.10;1.00;;;;;;;17.37;100.00;99797.06;5000113;28;20046;-96
2022/08/23 08:45:01;;;;;;;2.70;1.45;;;;;;;17.41;100.00;99790.00;5012177;28;20292;-94
2022/08/23 08:47:36;;;;;;;1.83;1.20;;;;;;;17.43;100.00;99798.69;4978569;28;20046;-95
2022/08/23 08:50:08;;;;;;;1.30;1.10;;;;;;;17.50;100.00;99803.13;4976388;28;20050;-96
2022/08/23 08:52:40;;;;;;;2.72;1.52;;;;;;;17.49;100.00;99805.16;4993680;28;20137;-92
2022/08/23 08:55:20;;;;;;;3.60;1.33;;;;;;;17.53;100.00;99811.31;4997698;28;20715;-92
2022/08/23 08:57:49;;;;;;;2.72;1.30;;;;;;;17.50;100.00;99800.31;4993027;28;20061;-95
2022/08/23 09:00:20;;;;;;;1.38;1.27;;;;;;;17.55;100.00;99808.78;4982397;28;20057;-79
2022/08/23 09:02:46;;;;;;;1.55;1.10;;;;;;;17.59;100.00;99812.19;4994799;28;20487;-80
2022/08/23 09:05:25;;;;;;;3.03;1.50;;;;;;;17.65;100.00;99817.88;4987123;28;20044;-79
2022/08/23 09:08:22;;;;;;;3.58;1.45;;;;;;;17.58;100.00;99821.09;4989347;28;20099;-79
2022/08/23 09:11:08;;;;;;;2.47;1.40;;;;;;;17.63;100.00;99821.16;4992022;28;20443;-80
2022/08/23 09:13:52;;;;;;;1.67;1.40;;;;;;;17.75;100.00;99824.13;4985748;28;20407;-80
2022/08/23 09:16:30;;;;;;;2.53;1.55;;;;;;;17.81;100.00;99816.53;4987558;28;20069;-80
2022/08/23 09:18:56;;;;;;;3.28;1.60;;;;;;;17.82;100.00;99810.44;4997464;28;20058;-96
2022/08/23 09:21:23;;;;;;;2.63;1.40;;;;;;;17.86;100.00;99807.41;4971882;28;20096;-95
2022/08/23 09:23:50;;;;;;;2.72;1.90;;;;;;;17.92;100.00;99813.84;5009477;28;20030;-94
2022/08/23 09:26:29;;;;;;;2.28;1.70;;;;;;;18.06;100.00;99807.38;4990698;28;20511;-96
2022/08/23 09:29:00;;;;;;;2.13;1.80;;;;;;;18.26;100.00;99815.00;4993991;28;20118;-96
2022/08/23 09:31:40;;;;;;;3.67;1.58;;;;;;;18.52;100.00;99816.53;4992115;28;20038;-95
2022/08/23 09:34:08;;;;;;;10.73;1.98;;;;;;;18.71;100.00;99813.41;4999810;28;20042;-96
2022/08/23 09:36:46;;;;;;;2.85;1.63;;;;;;;18.94;100.00;99815.09;4970819;28;20050;-80
2022/08/23 09:39:30;;;;;;;2.13;1.40;;;;;;;19.24;100.00;99809.94;4992037;28;20041;-80
2022/08/23 09:41:58;;;;;;;2.00;1.40;;;;;;;19.24;100.00;99819.16;4994352;28;20507;-80
2022/08/23 09:44:39;;;;;;;1.90;1.40;;;;;;;19.29;100.00;99820.47;4974318;28;20041;-80
2022/08/23 09:47:14;;;;;;;;;;;;;;;19.37;100.00;99816.66;4999083;28;20145;-80
2022/08/23 09:49:47;;;;;;;1.48;1.20;;;;;;;19.46;100.00;99819.31;4996074;28;19921;-80
2022/08/23 09:52:17;;;;;;;1.58;1.30;;;;;;;19.59;100.00;99820.91;4997231;28;20431;-80
2022/08/23 09:54:43;;;;;;;2.58;1.40;;;;;;;19.53;100.00;99823.72;4991724;28;20038;-80
2022/08/23 09:57:10;;;;;;;1.35;1.13;;;;;;;19.52;100.00;99822.16;4976383;28;20054;-95
2022/08/23 09:59:50;;;;;;;3.88;1.35;;;;;;;19.62;100.00;99825.50;5020061;28;20040;-95
2022/08/23 10:02:21;;;;;;;4.20;1.30;;;;;;;19.70;100.00;99820.94;5004463;28;20088;-95
2022/08/23 10:05:27;;;;;;;3.00;1.38;;;;;;;20.02;100.00;99816.72;5026874;28;20042;-95
2022/08/23 10:07:59;;;;;;;1.10;1.00;;;;;;;20.39;100.00;99819.41;4991141;28;20046;-95
2022/08/23 10:10:45;;;;;;;1.58;1.30;;;;;;;20.43;100.00;99822.72;4986507;28;20034;-95
2022/08/23 10:13:11;;;;;;;2.58;1.08;;;;;;;20.58;100.00;99819.69;4985188;28;20091;-95
2022/08/23 10:15:49;;;;;;;2.42;1.10;;;;;;;20.54;100.00;99825.59;4976876;28;20384;-79
2022/08/23 10:18:30;;;;;;;1.20;1.10;;;;;;;20.56;100.00;99823.00;4992476;28;20042;-79
2022/08/23 10:21:16;;;;;;;1.42;1.27;;;;;;;20.48;100.00;99827.63;4991968;28;20410;-79
2022/08/23 10:24:00;;;;;;;2.35;1.30;;;;;;;20.38;100.00;99829.88;4973262;28;20042;-79
2022/08/23 10:26:30;;;;;;;1.48;1.30;;;;;;;20.13;100.00;99827.25;5003051;28;20041;-79
2022/08/23 10:29:37;;;;;;;1.60;1.50;;;;;;;20.02;100.00;99819.53;4975496;28;20499;-79
2022/08/23 10:32:35;;;;;;;1.55;1.10;;;;;;;20.16;100.00;99829.81;4993971;28;20042;-79
2022/08/23 10:35:10;;;;;;;3.13;1.20;;;;;;;20.08;100.00;99823.16;4981295;28;20615;-95
2022/08/23 10:38:02;;;;;;;3.30;1.40;;;;;;;20.08;100.00;99828.78;4997368;28;20523;-94
2022/08/23 10:40:36;;;;;;;2.00;1.60;;;;;;;20.02;100.00;99823.13;4981466;28;20053;-94
2022/08/23 10:43:24;;;;;;;;;;;;;;;19.96;100.00;99832.84;4998417;28;20038;-94
2022/08/23 10:45:51;;;;;;;1.50;1.20;;;;;;;20.06;100.00;99820.06;4998148;28;19917;-94
2022/08/23 10:48:28;;;;;;;1.80;1.50;;;;;;;19.96;100.00;99830.03;5003345;28;20048;-96
2022/08/23 10:51:01;;;;;;;2.58;1.38;;;;;;;19.85;100.00;99832.81;5018349;23;20592;-84
2022/08/23 10:53:36;;;;;;;1.30;1.15;;;;;;;19.85;100.00;99827.94;4964680;28;20045;-85
2022/08/23 10:56:03;;;;;;;1.52;1.42;;;;;;;19.93;100.00;99833.84;4987970;28;20047;-83
2022/08/23 10:58:39;;;;;;;3.15;1.30;;;;;;;19.87;100.00;99825.38;4952907;28;20043;-85
2022/08/23 11:01:07;;;;;;;2.75;1.30;;;;;;;19.82;100.00;99833.78;4956396;28;20043;-85
2022/08/23 11:03:42;;;;;;;2.60;1.42;;;;;;;19.92;100.00;99838.72;4946649;29;20507;-86
2022/08/23 11:06:36;;;;;;;2.10;1.23;;;;;;;19.90;100.00;99841.25;4946618;28;20098;-85
2022/08/23 11:09:05;;;;;;;1.40;1.30;;;;;;;19.81;100.00;99849.16;4959976;28;20132;-85
2022/08/23 11:11:44;;;;;;;1.95;1.40;;;;;;;19.72;100.00;99838.88;4955400;28;20407;-85
2022/08/23 11:14:31;;;;;;;1.38;1.27;;;;;;;19.68;100.00;99840.41;4941046;28;20542;-85
2022/08/23 11:16:59;;;;;;;1.35;1.25;;;;;;;19.68;100.00;99843.22;4957875;28;20086;-85
2022/08/23 11:19:54;;;;;;;4.43;1.50;;;;;;;19.76;100.00;99841.44;4950249;28;20407;-85
2022/08/23 11:22:25;;;;;;;1.73;1.27;;;;;;;19.76;100.00;99842.22;4949030;28;20071;-85
2022/08/23 11:24:58;;;;;;;2.20;1.63;;;;;;;19.74;100.00;99846.81;4942026;29;20411;-85
2022/08/23 11:27:29;;;;;;;1.75;1.40;;;;;;;19.75;100.00;99840.69;4926676;29;20057;-85
2022/08/23 11:29:55;;;;;;;1.90;1.65;;;;;;;19.83;100.00;99840.97;4956829;28;20057;-86
2022/08/23 11:32:39;;;;;;;1.73;1.38;;;;;;;19.90;100.00;99829.22;4948459;28;20040;-85
2022/08/23 11:35:10;;;;;;;1.50;1.40;;;;;;;20.01;100.00;99841.31;4948535;29;20125;-85
2022/08/23 11:37:57;;;;;;;1.90;1.50;;;;;;;20.05;100.00;99841.06;4943824;29;20094;-86
2022/08/23 11:40:38;;;;;;;2.05;1.55;;;;;;;20.05;100.00;99845.91;4943194;29;20044;-86
2022/08/23 11:43:09;;;;;;;1.42;1.33;;;;;;;20.02;100.00;99847.69;4965598;28;20145;-85
2022/08/23 11:45:44;;;;;;;1.50;1.30;;;;;;;20.01;100.00;99851.81;4947563;29;20043;-85
2022/08/23 11:48:18;;;;;;;1.63;1.25;;;;;;;19.98;100.00;99844.34;4956996;28;20043;-85
2022/08/23 11:51:02;;;;;;;1.52;1.42;;;;;;;19.93;100.00;99839.50;4941685;29;20051;-86
2022/08/23 11:53:53;;;;;;;1.88;1.20;;;;;;;19.95;100.00;99848.19;4941263;29;20155;-85
2022/08/23 11:56:38;;;;;;;3.13;1.30;;;;;;;19.93;100.00;99839.50;4949322;28;20118;-85
2022/08/23 11:59:59;;;;;;;1.88;1.40;;;;;;;19.89;100.00;99844.59;4942325;29;20079;-86
2022/08/23 12:02:32;;;;;;;1.45;1.23;;;;;;;19.97;100.00;99845.66;4902977;29;20462;-86
2022/08/23 12:05:00;;;;;;;1.90;1.50;;;;;;;20.00;100.00;99855.88;4933457;29;20532;-85
2022/08/23 12:07:43;;;;;;;2.85;1.50;;;;;;;20.07;100.00;99848.97;4950682;28;20137;-84
2022/08/23 12:10:09;;;;;;;2.88;1.67;;;;;;;20.14;100.00;99857.72;4941942;29;20039;-84
2022/08/23 12:12:34;;;;;;;4.07;1.67;;;;;;;20.19;100.00;99859.78;4957433;28;20090;-84
2022/08/23 12:15:07;;;;;;;2.70;1.73;;;;;;;20.25;100.00;99854.94;4960179;28;20047;-84
2022/08/23 12:17:39;;;;;;;3.35;1.60;;;;;;;20.35;100.00;99852.69;4944764;29;20054;-84
2022/08/23 12:20:08;;;;;;;2.00;1.77;;;;;;;20.29;100.00;99861.13;4952127;29;20073;-84
2022/08/23 12:22:56;;;;;;;1.85;1.60;;;;;;;20.35;100.00;99853.44;4938092;29;20035;-85
2022/08/23 12:25:22;;;;;;;1.65;1.40;;;;;;;20.43;100.00;99857.31;4945784;29;20479;-84
2022/08/23 12:27:53;;;;;;;2.08;1.42;;;;;;;20.43;100.00;99834.78;4934636;29;20071;-86
2022/08/23 12:30:33;;;;;;;3.85;1.55;;;;;;;20.55;100.00;99851.69;4959636;28;20110;-85
2022/08/23 12:33:05;;;;;;;1.55;1.45;;;;;;;20.73;100.00;99856.84;4966116;28;20519;-85
2022/08/23 12:35:37;;;;;;;1.60;1.50;;;;;;;20.70;100.00;99847.38;4947956;29;20035;-86
2022/08/23 12:38:08;;;;;;;1.73;1.60;;;;;;;20.86;100.00;99845.84;4945081;29;20118;-86
2022/08/23 12:40:37;;;;;;;3.72;1.80;;;;;;;20.97;100.00;99845.84;4942695;29;20362;-85
2022/08/23 12:43:06;;;;;;;2.03;1.73;;;;;;;20.99;100.00;99854.53;4963529;28;20497;-86
2022/08/23 12:45:59;;;;;;;1.38;1.27;;;;;;;21.01;100.00;99854.81;4962117;28;20047;-84
2022/08/23 12:48:28;;;;;;;2.07;1.67;;;;;;;20.90;100.00;99835.06;4943188;28;20043;-85
2022/08/23 12:51:05;;;;;;;2.78;1.63;;;;;;;21.02;100.00;99852.75;4956024;28;20359;-85
2022/08/23 12:53:37;;;;;;;2.15;1.60;;;;;;;20.91;100.00;99847.88;4934661;28;20055;-85
2022/08/23 12:56:26;;;;;;;1.85;1.48;;;;;;;20.93;100.00;99840.44;4948288;28;20150;-85
2022/08/23 12:58:56;;;;;;;2.13;1.70;;;;;;;21.16;100.00;99852.50;4946803;28;20130;-85
2022/08/23 13:01:24;;;;;;;2.42;1.60;;;;;;;21.17;100.00;99842.00;4932801;29;20050;-85
2022/08/23 13:03:55;;;;;;;2.13;1.70;;;;;;;21.06;100.00;99839.94;4921749;29;20127;-85
2022/08/23 13:06:25;;;;;;;1.70;1.60;;;;;;;21.14;100.00;99835.34;4951674;28;20055;-85
2022/08/23 13:08:56;;;;;;;1.85;1.60;;;;;;;21.18;100.00;99835.84;4944953;28;20044;-85
2022/08/23 13:11:31;;;;;;;1.77;1.50;;;;;;;21.30;100.00;99840.19;4931089;29;20124;-85
2022/08/23 13:13:57;;;;;;;3.55;1.50;;;;;;;21.53;100.00;99840.91;4930640;29;20495;-85
2022/08/23 13:16:30;;;;;;;1.50;1.40;;;;;;;21.66;100.00;99848.81;4929361;29;20054;-85
2022/08/23 13:19:09;;;;;;;;;;;;;;;21.53;100.00;99840.13;4946212;28;20063;-85
2022/08/23 13:21:35;;;;;;;3.40;1.63;;;;;;;21.61;100.00;99846.78;4946007;29;20017;-85